Weather at Arusha Airport

Public forecast

Using degrees Celsius for public forecast. Weather courtesy of forecast.io.

Current aviation weather report (METAR) for Arusha Airport

Retrieved 2021/07/24 00:00 UTC (53 minutes ago):

HTAR 240000Z 12015KT 9999 SCT024 15/13 Q1025 NOSIG

Aviation forecast (TAF) for Arusha Airport

Retrieved 2021-07-24 00:30 UTC (23 minutes ago):

TAF HTAR 232300Z 2400/2424 11010KT 9999 SCT024 BECMG 2403/2405 BKN020